createdAt,value
2018-12-03T00:00:18.970Z,0.7
2018-12-03T00:02:18.757Z,0.5
2018-12-03T00:04:18.528Z,0.5
2018-12-03T00:06:19.150Z,0.6
2018-12-03T00:08:18.941Z,0.9
2018-12-03T00:10:19.223Z,0.8
2018-12-03T00:12:19.009Z,0.4
2018-12-03T00:14:18.779Z,0.7
2018-12-03T00:16:19.378Z,0.9
2018-12-03T00:18:19.252Z,0.7
2018-12-03T00:20:19.040Z,0.8
2018-12-03T00:22:18.811Z,0.6
2018-12-03T00:24:18.585Z,0.6
2018-12-03T00:26:18.650Z,0.9
2018-12-03T00:28:19.423Z,0.8
2018-12-03T00:30:19.204Z,0.7
2018-12-03T00:32:18.989Z,0.7
2018-12-03T00:34:18.772Z,0.6
2018-12-03T00:36:18.531Z,0.8
2018-12-03T00:38:19.311Z,0.5
2018-12-03T00:40:18.601Z,0.8
2018-12-03T00:42:19.381Z,0.6
2018-12-03T00:44:19.146Z,0.4
2018-12-03T00:46:18.753Z,0.5
2018-12-03T00:48:18.590Z,0.6
2018-12-03T00:50:19.401Z,0.6
2018-12-03T00:52:19.180Z,0.5
2018-12-03T00:54:18.947Z,0.5
2018-12-03T00:56:19.121Z,0.5
2018-12-03T00:58:18.891Z,0.7
2018-12-03T01:00:18.705Z,0.4
2018-12-03T01:02:19.502Z,0.6
2018-12-03T01:04:19.275Z,0.4
2018-12-03T01:06:18.577Z,0.5
2018-12-03T01:08:19.379Z,0.3
2018-12-03T01:10:18.640Z,0.3
2018-12-03T01:12:19.366Z,0.5
2018-12-03T01:14:19.149Z,0.5
2018-12-03T01:16:19.361Z,0.3
2018-12-03T01:18:19.235Z,0.4
2018-12-03T01:20:19.102Z,0.3
2018-12-03T01:22:18.911Z,0.3
2018-12-03T01:24:18.686Z,0.2
2018-12-03T01:26:18.750Z,0.3
2018-12-03T01:28:18.538Z,0.3
2018-12-03T01:30:19.382Z,0.3
2018-12-03T01:32:19.471Z,0.2
2018-12-03T01:34:19.254Z,0.3
2018-12-03T01:36:18.928Z,0.2
2018-12-03T01:38:18.746Z,0.1
2018-12-03T01:40:19.060Z,0.2
2018-12-03T01:42:18.811Z,0.3
2018-12-03T01:44:18.583Z,0.1
2018-12-03T01:46:19.026Z,0.1
2018-12-03T01:48:18.820Z,0.2
2018-12-03T01:50:18.622Z,0.1
2018-12-03T01:52:19.379Z,0.1
2018-12-03T01:54:19.177Z,0.3
2018-12-03T01:56:19.441Z,0.3
2018-12-03T01:58:19.239Z,0.2
2018-12-03T02:00:19.016Z,0.2
2018-12-03T02:02:18.539Z,0.1
2018-12-03T02:04:19.326Z,0.3
2018-12-03T02:06:19.404Z,0.2
2018-12-03T02:08:19.174Z,0.2
2018-12-03T02:10:19.443Z,0.1
2018-12-03T02:12:19.215Z,0.1
2018-12-03T02:14:18.994Z,0.1
2018-12-03T02:16:18.541Z,0.2
2018-12-03T02:18:19.374Z,0.3
2018-12-03T02:20:19.203Z,0.2
2018-12-03T02:22:18.977Z,0.2
2018-12-03T02:24:18.771Z,0.2
2018-12-03T02:26:18.989Z,0.1
2018-12-03T02:28:18.836Z,0.3
2018-12-03T02:30:18.614Z,0.2
2018-12-03T02:32:19.414Z,0.2
2018-12-03T02:34:19.181Z,0.2
2018-12-03T02:36:18.740Z,0.2
2018-12-03T02:38:18.542Z,0.2
2018-12-03T02:40:18.835Z,0.3
2018-12-03T02:42:19.492Z,0.4
2018-12-03T02:44:19.304Z,0.5
2018-12-03T02:46:18.769Z,0.4
2018-12-03T02:48:18.568Z,0.4
2018-12-03T02:50:19.353Z,0.5
2018-12-03T02:52:19.126Z,0.5
2018-12-03T02:54:18.912Z,0.2
2018-12-03T02:56:18.544Z,0.6
2018-12-03T02:58:19.350Z,0.6
2018-12-03T03:00:19.165Z,0.6
2018-12-03T03:02:18.990Z,0.5
2018-12-03T03:04:18.766Z,0.6
2018-12-03T03:06:18.926Z,0.8
2018-12-03T03:08:18.743Z,0.9
2018-12-03T03:10:18.991Z,0.6
2018-12-03T03:12:18.782Z,0.9
2018-12-03T03:14:18.615Z,1.8
2018-12-03T03:16:18.862Z,0.9
2018-12-03T03:18:18.723Z,1
2018-12-03T03:20:19.522Z,1
2018-12-03T03:22:19.330Z,0.9
2018-12-03T03:24:19.125Z,0.9
2018-12-03T03:26:18.759Z,0.8
2018-12-03T03:28:18.569Z,1
2018-12-03T03:30:19.383Z,0.9
2018-12-03T03:32:19.011Z,1
2018-12-03T03:34:18.892Z,0.8
2018-12-03T03:36:19.009Z,0.9
2018-12-03T03:38:18.794Z,0.8
2018-12-03T03:40:19.098Z,1
2018-12-03T03:42:18.724Z,1.1
2018-12-03T03:44:18.530Z,1
2018-12-03T03:46:19.112Z,1.3
2018-12-03T03:48:18.913Z,0.9
2018-12-03T03:50:18.708Z,1
2018-12-03T03:52:19.506Z,0.7
2018-12-03T03:54:25.038Z,0.9
2018-12-03T03:56:18.674Z,1
2018-12-03T03:58:19.462Z,1
2018-12-03T04:00:19.235Z,0.8
2018-12-03T04:02:19.054Z,0.8
2018-12-03T04:04:18.840Z,0.9
2018-12-03T04:06:19.015Z,0.8
2018-12-03T04:08:18.788Z,0.7
2018-12-03T04:10:19.088Z,0.8
2018-12-03T04:12:18.879Z,1.2
2018-12-03T04:14:18.686Z,1.1
2018-12-03T04:16:18.877Z,1.1
2018-12-03T04:18:18.706Z,0.8
2018-12-03T04:20:19.483Z,0.9
2018-12-03T04:22:19.262Z,0.9
2018-12-03T04:24:19.035Z,1
2018-12-03T04:26:18.797Z,0.8
2018-12-03T04:28:18.614Z,0.6
2018-12-03T04:30:19.422Z,0.6
2018-12-03T04:32:19.229Z,0.9
2018-12-03T04:34:19.024Z,0.7
2018-12-03T04:36:18.656Z,1
2018-12-03T04:38:19.464Z,1
2018-12-03T04:40:18.898Z,0.6
2018-12-03T04:42:19.407Z,0.5
2018-12-03T04:44:19.187Z,0.7
2018-12-03T04:46:18.866Z,0.7
2018-12-03T04:48:18.633Z,0.7
2018-12-03T04:50:19.426Z,0.6
2018-12-03T04:52:19.230Z,0.7
2018-12-03T04:54:19.029Z,0.5
2018-12-03T04:56:18.997Z,0.3
2018-12-03T04:58:18.809Z,0.4
2018-12-03T05:00:18.653Z,0.6
2018-12-03T05:02:19.424Z,0.5
2018-12-03T05:04:19.249Z,0.4
2018-12-03T05:06:19.456Z,0.6
2018-12-03T05:08:19.236Z,1.2
2018-12-03T05:10:18.531Z,0.5
2018-12-03T05:12:19.344Z,0.6
2018-12-03T05:14:19.145Z,0.8
2018-12-03T05:16:18.977Z,0.6
2018-12-03T05:18:18.869Z,0.7
2018-12-03T05:20:18.687Z,0.5
2018-12-03T05:22:19.497Z,0.4
2018-12-03T05:24:19.291Z,0.8
2018-12-03T05:26:18.850Z,0.5
2018-12-03T05:28:18.642Z,1.3
2018-12-03T05:30:19.451Z,0.7
2018-12-03T05:32:19.287Z,1.1
2018-12-03T05:34:19.081Z,0.9
2018-12-03T05:36:19.256Z,0.6
2018-12-03T05:38:19.016Z,1.2
2018-12-03T05:40:19.325Z,0.5
2018-12-03T05:42:19.434Z,0.7
2018-12-03T05:44:19.218Z,8.1
2018-12-03T05:46:19.398Z,6.3
2018-12-03T05:48:19.177Z,1.8
2018-12-03T05:50:19.019Z,1
2018-12-03T05:52:18.637Z,0.9
2018-12-03T05:54:19.420Z,1
2018-12-03T05:56:19.032Z,1
2018-12-03T05:58:18.821Z,0.6
2018-12-03T06:00:18.737Z,0.4
2018-12-03T06:02:19.515Z,0.7
2018-12-03T06:04:19.306Z,1.2
2018-12-03T06:06:18.873Z,0.6
2018-12-03T06:08:18.672Z,0.7
2018-12-03T06:10:18.972Z,0.8
2018-12-03T06:12:18.770Z,1.1
2018-12-03T06:14:18.526Z,1.2
2018-12-03T06:16:18.715Z,0.8
2018-12-03T06:18:18.602Z,0.8
2018-12-03T06:20:19.394Z,0.8
2018-12-03T06:22:19.195Z,0.8
2018-12-03T06:24:19.002Z,0.5
2018-12-03T06:26:19.278Z,1.1
2018-12-03T06:28:19.069Z,0.6
2018-12-03T06:30:18.853Z,0.8
2018-12-03T06:32:18.643Z,0.7
2018-12-03T06:34:19.437Z,0.5
2018-12-03T06:36:18.659Z,0.7
2018-12-03T06:38:19.485Z,0.6
2018-12-03T06:40:18.800Z,0.8
2018-12-03T06:42:19.417Z,0.5
2018-12-03T06:44:19.196Z,0.6
2018-12-03T06:46:19.350Z,0.6
2018-12-03T06:48:19.139Z,0.8
2018-12-03T06:50:18.928Z,0.6
2018-12-03T06:52:18.717Z,0.6
2018-12-03T06:54:19.497Z,1.2
2018-12-03T06:56:18.606Z,1.4
2018-12-03T06:58:19.391Z,0.8
2018-12-03T07:00:19.208Z,0.6
2018-12-03T07:02:19.014Z,0.7
2018-12-03T07:04:18.778Z,0.7
2018-12-03T07:06:18.528Z,0.6
2018-12-03T07:08:19.348Z,0.5
2018-12-03T07:10:18.632Z,0.7
2018-12-03T07:12:19.425Z,0.4
2018-12-03T07:14:19.231Z,0.5
2018-12-03T07:16:18.684Z,0.6
2018-12-03T07:18:18.537Z,0.6
2018-12-03T07:20:19.343Z,0.6
2018-12-03T07:22:19.136Z,0.7
2018-12-03T07:24:18.989Z,0.5
2018-12-03T07:26:18.641Z,0.3
2018-12-03T07:28:19.435Z,0.5
2018-12-03T07:30:19.241Z,0.9
2018-12-03T07:32:19.030Z,0.5
2018-12-03T07:34:18.811Z,0.6
2018-12-03T07:36:19.408Z,0.5
2018-12-03T07:38:19.214Z,0.5
2018-12-03T07:40:19.480Z,0.6
2018-12-03T07:42:19.133Z,0.8
2018-12-03T07:44:18.931Z,1.2
2018-12-03T07:46:19.505Z,0.6
2018-12-03T07:48:19.311Z,0.8
2018-12-03T07:50:19.134Z,0.6
2018-12-03T07:52:18.947Z,0.6
2018-12-03T07:54:18.759Z,0.6
2018-12-03T07:56:19.012Z,0.8
2018-12-03T07:58:18.784Z,0.7
2018-12-03T08:00:18.583Z,0.5
2018-12-03T08:02:19.188Z,0.9
2018-12-03T08:04:18.961Z,0.5
2018-12-03T08:06:18.612Z,0.7
2018-12-03T08:08:19.413Z,0.6
2018-12-03T08:10:18.687Z,0.7
2018-12-03T08:12:19.490Z,0.9
2018-12-03T08:14:19.288Z,0.6
2018-12-03T08:16:18.774Z,1.3
2018-12-03T08:18:18.621Z,1
2018-12-03T08:20:19.409Z,1.1
2018-12-03T08:22:19.057Z,1.2
2018-12-03T08:24:18.835Z,1.1
2018-12-03T08:26:18.946Z,1.2
2018-12-03T08:28:18.740Z,1.2
2018-12-03T08:30:18.582Z,1
2018-12-03T08:32:19.382Z,1.3
2018-12-03T08:34:19.180Z,0.9
2018-12-03T08:36:18.792Z,1
2018-12-03T08:38:18.590Z,1.2
2018-12-03T08:40:18.977Z,1.1
2018-12-03T08:42:18.802Z,1.5
2018-12-03T08:44:18.612Z,1.3
2018-12-03T08:46:19.164Z,0.9
2018-12-03T08:48:18.950Z,0.6
2018-12-03T08:50:18.810Z,1
2018-12-03T08:52:18.629Z,1.4
2018-12-03T08:54:19.433Z,0.8
2018-12-03T08:56:19.125Z,0.6
2018-12-03T08:58:18.928Z,0.5
2018-12-03T09:00:18.740Z,0.7
2018-12-03T09:02:18.526Z,0.7
2018-12-03T09:04:19.319Z,0.7
2018-12-03T09:06:19.231Z,0.7
2018-12-03T09:08:19.008Z,0.6
2018-12-03T09:10:19.270Z,0.4
2018-12-03T09:12:19.075Z,0.3
2018-12-03T09:14:18.860Z,0.3
2018-12-03T09:16:19.422Z,0.4
2018-12-03T09:18:19.267Z,0.5
2018-12-03T09:20:19.049Z,0.3
2018-12-03T09:22:18.850Z,0.4
2018-12-03T09:24:18.670Z,0.4
2018-12-03T09:26:19.228Z,0.5
2018-12-03T09:28:19.003Z,0.6
2018-12-03T09:30:18.794Z,0.4
2018-12-03T09:32:18.616Z,0.4
2018-12-03T09:34:19.411Z,0.4
2018-12-03T09:36:19.054Z,0.4
2018-12-03T09:38:18.845Z,0.4
2018-12-03T09:40:19.155Z,0.2
2018-12-03T09:42:18.787Z,0.6
2018-12-03T09:44:18.567Z,0.4
2018-12-03T09:46:19.190Z,0.3
2018-12-03T09:48:18.987Z,0.2
2018-12-03T09:50:18.949Z,0.2
2018-12-03T09:52:18.760Z,0.2
2018-12-03T09:54:18.555Z,0.2
2018-12-03T09:56:18.677Z,0.2
2018-12-03T09:58:19.458Z,0.4
2018-12-03T10:00:19.335Z,0.2
2018-12-03T10:02:19.146Z,0.2
2018-12-03T10:04:18.928Z,0.1
2018-12-03T10:06:18.749Z,0.4
2018-12-03T10:08:18.550Z,0.3
2018-12-03T10:10:18.852Z,0.2
2018-12-03T10:12:18.646Z,0.2
2018-12-03T10:14:19.434Z,0.3
2018-12-03T10:16:18.559Z,0.1
2018-12-03T10:18:19.456Z,0.2
2018-12-03T10:20:19.257Z,0.2
2018-12-03T10:22:19.299Z,0.2
2018-12-03T10:24:19.086Z,0.3
2018-12-03T10:26:18.641Z,0.4
2018-12-03T10:28:19.437Z,0.3
2018-12-03T10:30:19.227Z,0.3
2018-12-03T10:32:19.025Z,0.3
2018-12-03T10:34:18.808Z,0.1
2018-12-03T10:36:19.505Z,0.2
2018-12-03T10:38:19.311Z,0.4
2018-12-03T10:40:18.591Z,0.2
2018-12-03T10:42:19.371Z,0.2
2018-12-03T10:44:19.182Z,0.2
2018-12-03T10:46:19.308Z,0.2
2018-12-03T10:48:19.122Z,0.2
2018-12-03T10:50:22.169Z,0.3
2018-12-03T10:52:19.065Z,0.2
2018-12-03T10:54:18.828Z,0.3
2018-12-03T10:56:19.226Z,0.3
2018-12-03T10:58:19.017Z,0.2
2018-12-03T11:00:18.817Z,0.1
2018-12-03T11:02:18.616Z,0.2
2018-12-03T11:04:19.405Z,0.3
2018-12-03T11:06:19.002Z,0.1
2018-12-03T11:08:18.807Z,0.2
2018-12-03T11:10:19.147Z,0.2
2018-12-03T11:12:18.941Z,0.2
2018-12-03T11:14:18.734Z,0.2
2018-12-03T11:16:18.887Z,0.2
2018-12-03T11:18:18.775Z,0.2
2018-12-03T11:20:18.600Z,0.1
2018-12-03T11:22:19.437Z,0.2
2018-12-03T11:24:19.222Z,0.2
2018-12-03T11:26:19.028Z,0.1
2018-12-03T11:28:18.840Z,0.4
2018-12-03T11:30:18.715Z,0.1
2018-12-03T11:32:18.509Z,0.2
2018-12-03T11:34:19.293Z,0.2
2018-12-03T11:36:18.967Z,0.1
2018-12-03T11:38:18.743Z,0.1
2018-12-03T11:40:19.040Z,0.1
2018-12-03T11:42:18.663Z,0.1
2018-12-03T11:44:19.473Z,0.2
2018-12-03T11:46:18.562Z,0.2
2018-12-03T11:48:19.369Z,0.2
2018-12-03T11:50:19.166Z,0.4
2018-12-03T11:52:18.984Z,0.3
2018-12-03T11:54:18.844Z,0.5
2018-12-03T11:56:18.597Z,0.3
2018-12-03T11:58:19.398Z,0.2
2018-12-03T12:00:19.259Z,0.2
2018-12-03T12:02:18.900Z,0.1
2018-12-03T12:04:18.697Z,0.2
2018-12-03T12:06:18.822Z,0.5
2018-12-03T12:08:18.645Z,0.5
2018-12-03T12:10:18.954Z,0.1
2018-12-03T12:12:18.725Z,0.2
2018-12-03T12:14:19.521Z,0.4
2018-12-03T12:16:18.620Z,0.4
2018-12-03T12:18:19.501Z,0.3
2018-12-03T12:20:19.361Z,0.3
2018-12-03T12:22:19.164Z,0.2
2018-12-03T12:24:19.030Z,0.5
2018-12-03T12:26:19.458Z,0.3
2018-12-03T12:28:19.267Z,0.4
2018-12-03T12:30:19.081Z,0.5
2018-12-03T12:32:18.874Z,0.5
2018-12-03T12:34:18.663Z,0.3
2018-12-03T12:36:19.242Z,0.5
2018-12-03T12:38:19.021Z,0.2
2018-12-03T12:40:19.319Z,0.5
2018-12-03T12:42:19.002Z,0.4
2018-12-03T12:44:18.808Z,0.3
2018-12-03T12:46:19.475Z,0.3
2018-12-03T12:48:19.286Z,0.4
2018-12-03T12:50:19.102Z,0.7
2018-12-03T12:52:18.895Z,0.3
2018-12-03T12:54:18.701Z,0.3
2018-12-03T12:56:18.995Z,0.4
2018-12-03T12:58:18.808Z,0.3
2018-12-03T13:00:18.598Z,0.5
2018-12-03T13:02:19.225Z,0.3
2018-12-03T13:04:19.015Z,0.4
2018-12-03T13:06:19.458Z,0.3
2018-12-03T13:08:19.251Z,0.4
2018-12-03T13:10:18.557Z,0.5
2018-12-03T13:12:19.351Z,0.4
2018-12-03T13:14:19.146Z,1
2018-12-03T13:16:19.254Z,0.3
2018-12-03T13:18:19.095Z,0.2
2018-12-03T13:20:18.925Z,0.3
2018-12-03T13:22:18.717Z,0.4
2018-12-03T13:24:19.513Z,0.4
2018-12-03T13:26:19.091Z,0.2
2018-12-03T13:28:18.888Z,0.5
2018-12-03T13:30:18.714Z,0.3
2018-12-03T13:32:18.808Z,0.3
2018-12-03T13:34:18.599Z,0.8
2018-12-03T13:36:19.330Z,0.5
2018-12-03T13:38:19.126Z,0.5
2018-12-03T13:40:19.437Z,0.2
2018-12-03T13:42:19.262Z,0.7
2018-12-03T13:44:19.052Z,0.3
2018-12-03T13:46:18.675Z,0.9
2018-12-03T13:48:19.494Z,0.5
2018-12-03T13:50:19.393Z,0.6
2018-12-03T13:52:18.824Z,0.5
2018-12-03T13:54:18.628Z,0.5
2018-12-03T13:56:19.230Z,0.4
2018-12-03T13:58:19.062Z,0.4
2018-12-03T14:00:18.876Z,0.4
2018-12-03T14:02:18.704Z,0.6
2018-12-03T14:04:19.487Z,0.7
2018-12-03T14:06:19.045Z,0.4
2018-12-03T14:08:18.841Z,0.6
2018-12-03T14:10:19.162Z,0.3
2018-12-03T14:12:18.934Z,0.6
2018-12-03T14:14:18.738Z,0.5
2018-12-03T14:16:19.428Z,0.5
2018-12-03T14:18:19.317Z,0.6
2018-12-03T14:20:19.132Z,0.7
2018-12-03T14:22:18.832Z,0.9
2018-12-03T14:24:18.611Z,0.5
2018-12-03T14:26:19.044Z,0.6
2018-12-03T14:28:18.825Z,0.5
2018-12-03T14:30:18.610Z,0.5
2018-12-03T14:32:19.387Z,0.5
2018-12-03T14:34:19.181Z,0.7
2018-12-03T14:36:19.286Z,1
2018-12-03T14:38:19.081Z,1.1
2018-12-03T14:40:19.364Z,0.7
2018-12-03T14:42:18.965Z,0.7
2018-12-03T14:44:18.758Z,0.4
2018-12-03T14:46:19.373Z,0.5
2018-12-03T14:48:19.149Z,0.6
2018-12-03T14:50:18.968Z,0.7
2018-12-03T14:52:19.112Z,0.7
2018-12-03T14:54:18.881Z,0.4
2018-12-03T14:56:19.052Z,1
2018-12-03T14:58:18.830Z,0.7
2018-12-03T15:00:18.647Z,0.9
2018-12-03T15:02:19.418Z,0.7
2018-12-03T15:04:19.202Z,0.4
2018-12-03T15:06:19.351Z,0.7
2018-12-03T15:08:19.151Z,0.7
2018-12-03T15:10:19.455Z,0.6
2018-12-03T15:12:19.487Z,0.4
2018-12-03T15:14:19.281Z,0.9
2018-12-03T15:16:18.914Z,0.7
2018-12-03T15:18:18.779Z,0.6
2018-12-03T15:20:18.603Z,2.1
2018-12-03T15:22:19.428Z,1.6
2018-12-03T15:24:19.245Z,1
2018-12-03T15:26:18.829Z,0.7
2018-12-03T15:28:18.652Z,0.5
2018-12-03T15:30:20.272Z,0.8
2018-12-03T15:32:19.206Z,1.1
2018-12-03T15:34:18.985Z,1.2
2018-12-03T15:36:19.182Z,0.5
2018-12-03T15:38:19.011Z,0.8
2018-12-03T15:40:19.292Z,0.9
2018-12-03T15:42:18.978Z,0.5
2018-12-03T15:44:18.777Z,0.4
2018-12-03T15:46:19.336Z,0.5
2018-12-03T15:48:19.130Z,0.3
2018-12-03T15:50:18.956Z,0.7
2018-12-03T15:52:18.739Z,1
2018-12-03T15:54:18.536Z,0.6
2018-12-03T15:56:18.847Z,1.4
2018-12-03T15:58:18.655Z,1.1
2018-12-03T16:00:19.492Z,1.2
2018-12-03T16:02:19.278Z,1.6
2018-12-03T16:04:19.090Z,1.3
2018-12-03T16:06:19.276Z,1
2018-12-03T16:08:19.092Z,1.8
2018-12-03T16:10:19.415Z,1.7
2018-12-03T16:12:19.051Z,1.6
2018-12-03T16:14:18.840Z,1.2
2018-12-03T16:16:18.961Z,1.3
2018-12-03T16:18:18.837Z,0.9
2018-12-03T16:20:18.781Z,1.3
2018-12-03T16:22:19.196Z,0.9
2018-12-03T16:24:18.974Z,1.2
2018-12-03T16:26:19.068Z,0.9
2018-12-03T16:28:18.873Z,1.4
2018-12-03T16:30:18.690Z,1
2018-12-03T16:32:19.311Z,1.7
2018-12-03T16:34:19.121Z,1.3
2018-12-03T16:36:19.236Z,0.8
2018-12-03T16:38:19.047Z,0.8
2018-12-03T16:40:19.494Z,0.7
2018-12-03T16:42:19.292Z,1.1
2018-12-03T16:44:19.092Z,1.4
2018-12-03T16:46:19.261Z,1.6
2018-12-03T16:48:19.065Z,1
2018-12-03T16:50:18.872Z,1.6
2018-12-03T16:52:18.706Z,1.1
2018-12-03T16:54:19.502Z,1
2018-12-03T16:56:19.139Z,0.8
2018-12-03T16:58:18.940Z,1.4
2018-12-03T17:00:18.715Z,1.3
2018-12-03T17:02:18.518Z,1.9
2018-12-03T17:04:19.317Z,1.9
2018-12-03T17:06:18.889Z,2.1
2018-12-03T17:08:18.692Z,1.6
2018-12-03T17:10:19.026Z,1.5
2018-12-03T17:12:18.811Z,1.8
2018-12-03T17:14:18.624Z,1.8
2018-12-03T17:16:19.500Z,1.8
2018-12-03T17:18:19.380Z,2.6
2018-12-03T17:20:19.190Z,1.5
2018-12-03T17:22:18.954Z,1.6
2018-12-03T17:24:18.730Z,1.5
2018-12-03T17:26:18.863Z,1.8
2018-12-03T17:28:18.670Z,1.4
2018-12-03T17:30:19.475Z,1.7
2018-12-03T17:32:19.255Z,1.8
2018-12-03T17:34:19.035Z,1.9
2018-12-03T17:36:18.741Z,2.9
2018-12-03T17:38:18.547Z,3
2018-12-03T17:40:18.817Z,2.2
2018-12-03T17:42:18.607Z,2.4
2018-12-03T17:44:19.392Z,2.1
2018-12-03T17:46:18.574Z,1.5
2018-12-03T17:48:19.356Z,1.3
2018-12-03T17:50:19.148Z,1.1
2018-12-03T17:52:18.938Z,1.1
2018-12-03T17:54:18.738Z,0.9
2018-12-03T17:56:19.504Z,0.9
2018-12-03T17:58:19.277Z,1.1
2018-12-03T18:00:19.105Z,1.2
2018-12-03T18:02:18.612Z,2.6
2018-12-03T18:04:19.429Z,2.4
2018-12-03T18:06:19.123Z,1.7
2018-12-03T18:08:18.944Z,2
2018-12-03T18:10:19.270Z,1.4
2018-12-03T18:12:18.763Z,1
2018-12-03T18:14:18.563Z,1.4
2018-12-03T18:16:18.711Z,2.4
2018-12-03T18:18:18.588Z,1.1
2018-12-03T18:20:19.505Z,1.5
2018-12-03T18:22:19.293Z,0.6
2018-12-03T18:24:19.099Z,1.4
2018-12-03T18:26:18.770Z,1.2
2018-12-03T18:28:18.565Z,0.7
2018-12-03T18:30:19.353Z,1.1
2018-12-03T18:32:19.146Z,0.9
2018-12-03T18:34:18.952Z,1.2
2018-12-03T18:36:19.187Z,1.3
2018-12-03T18:38:18.983Z,1.4
2018-12-03T18:40:19.244Z,1.4
2018-12-03T18:42:18.935Z,1.4
2018-12-03T18:44:18.723Z,1.7
2018-12-03T18:46:18.954Z,1.3
2018-12-03T18:48:18.732Z,1.5
2018-12-03T18:50:19.621Z,0.7
2018-12-03T18:52:19.410Z,2
2018-12-03T18:54:19.195Z,1
2018-12-03T18:56:19.280Z,1.2
2018-12-03T18:58:19.080Z,1.1
2018-12-03T19:00:18.874Z,1.2
2018-12-03T19:02:19.483Z,1.1
2018-12-03T19:04:19.303Z,1.2
2018-12-03T19:06:19.366Z,0.6
2018-12-03T19:08:19.210Z,0.7
2018-12-03T19:10:19.492Z,1.2
2018-12-03T19:12:19.275Z,1.5
2018-12-03T19:14:19.080Z,0.6
2018-12-03T19:16:18.973Z,1.2
2018-12-03T19:18:18.825Z,1.1
2018-12-03T19:20:18.640Z,1.2
2018-12-03T19:22:18.684Z,1.1
2018-12-03T19:24:19.481Z,1.4
2018-12-03T19:26:19.088Z,1.1
2018-12-03T19:28:18.867Z,1.6
2018-12-03T19:30:18.673Z,1.5
2018-12-03T19:32:19.449Z,1.6
2018-12-03T19:34:19.235Z,1.5
2018-12-03T19:36:18.865Z,1.3
2018-12-03T19:38:18.642Z,1.4
2018-12-03T19:40:19.015Z,2
2018-12-03T19:42:19.253Z,1.3
2018-12-03T19:44:19.226Z,1.8
2018-12-03T19:46:19.445Z,1.5
2018-12-03T19:48:19.276Z,2.4
2018-12-03T19:50:19.174Z,2
2018-12-03T19:52:18.760Z,1.8
2018-12-03T19:54:18.625Z,1.6
2018-12-03T19:56:19.321Z,1.5
2018-12-03T19:58:19.184Z,1.5
2018-12-03T20:00:19.015Z,1.9
2018-12-03T20:02:18.770Z,1.4
2018-12-03T20:04:18.767Z,1.5
2018-12-03T20:06:18.893Z,1.9
2018-12-03T20:08:18.829Z,2.1
2018-12-03T20:10:19.253Z,2.4
2018-12-03T20:12:19.208Z,2.1
2018-12-03T20:14:19.004Z,1.4
2018-12-03T20:16:19.155Z,1.6
2018-12-03T20:18:19.287Z,1.3
2018-12-03T20:20:19.162Z,0.9
2018-12-03T20:22:19.147Z,1.1
2018-12-03T20:24:19.286Z,0.7
2018-12-03T20:26:19.407Z,1.1
2018-12-03T20:28:19.202Z,1.4
2018-12-03T20:30:19.043Z,1.8
2018-12-03T20:32:18.826Z,1.2
2018-12-03T20:34:18.591Z,1
2018-12-03T20:36:18.678Z,1.3
2018-12-03T20:38:19.700Z,1.4
2018-12-03T20:40:19.400Z,1.6
2018-12-03T20:42:19.302Z,1.2
2018-12-03T20:44:19.338Z,1.2
2018-12-03T20:46:19.502Z,1.9
2018-12-03T20:48:19.341Z,1.9
2018-12-03T20:50:19.151Z,2.4
2018-12-03T20:52:18.932Z,1.8
2018-12-03T20:54:18.720Z,2
2018-12-03T20:56:18.904Z,1.5
2018-12-03T20:58:18.719Z,1.1
2018-12-03T21:00:19.497Z,1.4
2018-12-03T21:02:19.318Z,1.3
2018-12-03T21:04:19.109Z,1.2
2018-12-03T21:06:18.859Z,1.7
2018-12-03T21:08:18.654Z,1.6
2018-12-03T21:10:19.083Z,1.8
2018-12-03T21:12:18.882Z,1.6
2018-12-03T21:14:20.179Z,1.3
2018-12-03T21:16:18.552Z,2
2018-12-03T21:18:19.396Z,2.5
2018-12-03T21:20:19.210Z,1.6
2018-12-03T21:22:18.774Z,1.8
2018-12-03T21:24:18.570Z,2.1
2018-12-03T21:26:19.239Z,2.1
2018-12-03T21:28:19.055Z,1.8
2018-12-03T21:30:18.866Z,1.3
2018-12-03T21:32:18.633Z,2
2018-12-03T21:34:19.429Z,1.9
2018-12-03T21:36:18.679Z,2.3
2018-12-03T21:38:19.482Z,2
2018-12-03T21:40:18.850Z,2.5
2018-12-03T21:42:18.622Z,2.1
2018-12-03T21:44:19.403Z,1.7
2018-12-03T21:46:19.122Z,1.4
2018-12-03T21:48:18.921Z,1.9
2018-12-03T21:50:18.780Z,2.3
2018-12-03T21:52:18.568Z,1.3
2018-12-03T21:54:19.358Z,1.5
2018-12-03T21:56:18.995Z,1.4
2018-12-03T21:58:18.784Z,1.5
2018-12-03T22:00:18.698Z,1.9
2018-12-03T22:02:23.952Z,1.6
2018-12-03T22:04:18.935Z,1.2
2018-12-03T22:06:19.355Z,1.2
2018-12-03T22:08:19.143Z,1.2
2018-12-03T22:10:19.397Z,1.6
2018-12-03T22:12:19.167Z,1.1
2018-12-03T22:14:18.965Z,1.3
2018-12-03T22:16:18.764Z,1.1
2018-12-03T22:18:18.610Z,1
2018-12-03T22:20:19.400Z,1.1
2018-12-03T22:22:19.188Z,1.2
2018-12-03T22:24:18.985Z,0.9
2018-12-03T22:26:19.239Z,1
2018-12-03T22:28:19.041Z,1.4
2018-12-03T22:30:18.833Z,1.3
2018-12-03T22:32:18.651Z,1.6
2018-12-03T22:34:22.944Z,1.6
2018-12-03T22:36:18.542Z,1.5
2018-12-03T22:38:19.327Z,1.8
2018-12-03T22:40:18.599Z,1.1
2018-12-03T22:42:19.381Z,1.3
2018-12-03T22:44:19.172Z,1
2018-12-03T22:46:19.265Z,1
2018-12-03T22:48:19.071Z,1
2018-12-03T22:50:18.854Z,1.3
2018-12-03T22:52:19.029Z,0.8
2018-12-03T22:54:18.843Z,1.3
2018-12-03T22:56:19.077Z,1.6
2018-12-03T22:58:18.883Z,1.1
2018-12-03T23:00:18.665Z,1.4
2018-12-03T23:02:19.479Z,1.2
2018-12-03T23:04:19.288Z,0.8
2018-12-03T23:06:19.385Z,0.8
2018-12-03T23:08:19.166Z,0.6
2018-12-03T23:10:19.519Z,0.7
2018-12-03T23:12:19.309Z,1
2018-12-03T23:14:19.095Z,0.9
2018-12-03T23:16:18.678Z,0.5
2018-12-03T23:18:18.558Z,0.9
2018-12-03T23:20:19.362Z,0.5
2018-12-03T23:22:19.139Z,0.8
2018-12-03T23:24:18.934Z,0.6
2018-12-03T23:26:18.662Z,1
2018-12-03T23:28:19.481Z,0.7
2018-12-03T23:30:19.276Z,0.8
2018-12-03T23:32:18.942Z,0.9
2018-12-03T23:34:18.728Z,0.5
2018-12-03T23:36:18.564Z,0.7
2018-12-03T23:38:19.372Z,0.9
2018-12-03T23:40:18.702Z,0.5
2018-12-03T23:42:19.483Z,0.9
2018-12-03T23:44:19.288Z,0.6
2018-12-03T23:46:19.383Z,0.5
2018-12-03T23:48:19.170Z,0.9
2018-12-03T23:50:18.947Z,0.4
2018-12-03T23:52:18.594Z,0.5
2018-12-03T23:54:19.398Z,0.5
2018-12-03T23:56:19.006Z,0.7
2018-12-03T23:58:18.809Z,0.7
